KDET/DET METAR and TAF weather

Enter ICAO airport designator
Station Type Date Time Source
KDET METAR 2020/08/11 18:53 UTC NOAA

KDET 111853Z 29010KT 10SM FEW060 29/17 A2993 RMK AO2 SLP130 T02890172


Station Type Date Time Source
KDET Decoded METAR 2020/08/11 18:53 UTC NOAA

DETROIT CITY AIRPORT, MI, United States (KDET) 42-25N 083-01W 190M
Aug 11, 2020 - 02:53 PM EDT / 2020.08.11 1853 UTC
Wind: from the WNW (290 degrees) at 12 MPH (10 KT):0
Visibility: 10 mile(s):0
Sky conditions: mostly clear
Temperature: 84.0 F (28.9 C)
Dew Point: 63.0 F (17.2 C)
Relative Humidity: 49%
Pressure (altimeter): 29.93 in. Hg (1013 hPa)
ob: KDET 111853Z 29010KT 10SM FEW060 29/17 A2993 RMK AO2 SLP130 T02890172
cycle: 19

Station Type Date Time Source
KDET TAF 2020/08/11 18:36 UTC NOAA

TAF KDET 111734Z 1118/1218 32010KT P6SM SCT040
FM120200 34003KT P6SM SKC
FM121500 10005KT P6SM FEW050

Example: see airport list